createdAt,value
2019-02-20T00:02:14.833Z,5.50
2019-02-20T00:05:02.204Z,5.40
2019-02-20T00:07:59.667Z,5.40
2019-02-20T00:10:21.611Z,5.40
2019-02-20T00:13:01.134Z,5.30
2019-02-20T00:15:41.423Z,5.30
2019-02-20T00:18:30.355Z,5.30
2019-02-20T00:21:00.470Z,5.20
2019-02-20T00:23:45.158Z,5.20
2019-02-20T00:26:23.325Z,5.20
2019-02-20T00:29:07.648Z,5.10
2019-02-20T00:31:47.088Z,5.10
2019-02-20T00:34:26.873Z,5.00
2019-02-20T00:37:05.996Z,4.90
2019-02-20T00:39:58.361Z,5.00
2019-02-20T00:42:36.290Z,4.90
2019-02-20T00:45:27.582Z,4.90
2019-02-20T00:48:24.986Z,4.90
2019-02-20T00:51:04.812Z,4.90
2019-02-20T00:53:49.146Z,4.90
2019-02-20T00:56:29.584Z,4.80
2019-02-20T00:59:10.505Z,4.70
2019-02-20T01:02:03.730Z,4.80
2019-02-20T01:04:46.164Z,4.70
2019-02-20T01:07:14.070Z,4.70
2019-02-20T01:09:57.207Z,4.60
2019-02-20T01:12:46.224Z,4.60
2019-02-20T01:15:32.329Z,4.60
2019-02-20T01:18:12.695Z,4.60
2019-02-20T01:20:49.224Z,4.60
2019-02-20T01:24:06.040Z,4.70
2019-02-20T01:26:51.595Z,4.80
2019-02-20T01:29:30.468Z,4.80
2019-02-20T01:32:05.742Z,4.80
2019-02-20T01:34:54.650Z,4.80
2019-02-20T01:37:28.996Z,4.80
2019-02-20T01:40:16.192Z,4.80
2019-02-20T01:42:55.391Z,4.90
2019-02-20T01:45:33.012Z,4.90
2019-02-20T01:48:13.368Z,4.90
2019-02-20T01:50:54.252Z,4.90
2019-02-20T01:53:33.098Z,4.90
2019-02-20T01:56:16.198Z,5.00
2019-02-20T01:58:57.834Z,5.00
2019-02-20T02:01:39.467Z,5.00
2019-02-20T02:04:19.680Z,5.10
2019-02-20T02:07:00.621Z,5.10
2019-02-20T02:09:41.170Z,5.00
2019-02-20T02:12:20.290Z,4.90
2019-02-20T02:15:00.641Z,4.90
2019-02-20T02:17:42.685Z,4.90
2019-02-20T02:20:33.440Z,4.80
2019-02-20T02:23:03.525Z,4.80
2019-02-20T02:25:43.839Z,4.70
2019-02-20T02:28:22.964Z,4.80
2019-02-20T02:31:15.004Z,4.80
2019-02-20T02:33:53.819Z,4.70
2019-02-20T02:36:32.933Z,4.70
2019-02-20T02:39:39.276Z,4.70
2019-02-20T02:42:09.248Z,4.60
2019-02-20T02:44:42.727Z,4.60
2019-02-20T02:47:31.612Z,4.60
2019-02-20T02:50:01.848Z,4.50
2019-02-20T02:52:42.786Z,4.40
2019-02-20T02:55:26.347Z,4.40
2019-02-20T02:58:04.262Z,4.40
2019-02-20T03:00:44.855Z,4.50
2019-02-20T03:03:23.288Z,4.40
2019-02-20T03:06:11.149Z,4.60
2019-02-20T03:08:43.927Z,4.60
2019-02-20T03:11:23.503Z,4.50
2019-02-20T03:14:06.521Z,4.50
2019-02-20T03:16:53.662Z,4.50
2019-02-20T03:19:54.187Z,4.50
2019-02-20T03:22:14.408Z,4.50
2019-02-20T03:25:04.229Z,4.50
2019-02-20T03:27:36.882Z,4.50
2019-02-20T03:30:17.141Z,4.40
2019-02-20T03:33:04.520Z,4.40
2019-02-20T03:35:37.961Z,4.40
2019-02-20T03:38:29.591Z,4.40
2019-02-20T03:40:59.893Z,4.40
2019-02-20T03:43:40.470Z,4.40
2019-02-20T03:46:22.359Z,4.40
2019-02-20T03:49:02.658Z,4.40
2019-02-20T03:51:44.458Z,4.40
2019-02-20T03:54:21.601Z,4.50
2019-02-20T03:57:01.566Z,4.40
2019-02-20T03:59:48.980Z,4.50
2019-02-20T04:02:39.891Z,4.50
2019-02-20T04:05:16.502Z,4.40
2019-02-20T04:07:59.075Z,4.40
2019-02-20T04:10:44.120Z,4.50
2019-02-20T04:13:30.035Z,4.60
2019-02-20T04:16:07.677Z,4.60
2019-02-20T04:18:57.895Z,4.70
2019-02-20T04:21:29.453Z,4.80
2019-02-20T04:24:08.622Z,4.80
2019-02-20T04:27:00.405Z,4.80
2019-02-20T04:29:32.085Z,4.80
2019-02-20T04:32:12.423Z,4.90
2019-02-20T04:34:51.593Z,4.90
2019-02-20T04:37:34.674Z,5.00
2019-02-20T04:40:22.690Z,5.20
2019-02-20T04:43:00.154Z,5.20
2019-02-20T04:45:39.099Z,5.30
2019-02-20T04:48:18.088Z,5.40
2019-02-20T04:50:59.675Z,5.40
2019-02-20T04:53:43.273Z,5.50
2019-02-20T04:56:21.067Z,5.50
2019-02-20T04:59:03.724Z,5.50
2019-02-20T05:01:43.959Z,5.50
2019-02-20T05:04:22.765Z,5.50
2019-02-20T05:07:01.571Z,5.60
2019-02-20T05:09:50.456Z,5.70
2019-02-20T05:12:24.302Z,5.70
2019-02-20T05:15:06.044Z,5.70
2019-02-20T05:17:46.617Z,5.80
2019-02-20T05:20:26.833Z,5.90
2019-02-20T05:23:08.628Z,5.80
2019-02-20T05:25:48.725Z,5.80
2019-02-20T05:28:27.522Z,5.90
2019-02-20T05:31:05.841Z,5.90
2019-02-20T05:33:46.110Z,6.00
2019-02-20T05:36:33.544Z,6.00
2019-02-20T05:39:12.113Z,6.00
2019-02-20T05:41:51.071Z,6.00
2019-02-20T05:44:30.841Z,6.00
2019-02-20T05:47:11.552Z,6.10
2019-02-20T05:49:53.354Z,6.10
2019-02-20T05:52:36.411Z,6.10
2019-02-20T05:55:15.569Z,6.10
2019-02-20T05:57:56.265Z,6.10
2019-02-20T06:00:35.242Z,6.20
2019-02-20T06:03:16.938Z,6.10
2019-02-20T06:05:57.338Z,6.00
2019-02-20T06:08:36.005Z,6.10
2019-02-20T06:11:26.465Z,6.20
2019-02-20T06:13:57.593Z,6.20
2019-02-20T06:16:40.564Z,6.10
2019-02-20T06:19:22.384Z,6.20
2019-02-20T06:21:56.908Z,6.20
2019-02-20T06:24:29.370Z,6.10
2019-02-20T06:27:01.834Z,6.10
2019-02-20T06:29:34.204Z,6.00
2019-02-20T06:32:07.005Z,6.00
2019-02-20T06:34:39.446Z,5.90
2019-02-20T06:37:16.552Z,5.80
2019-02-20T06:39:50.596Z,5.70
2019-02-20T06:42:22.014Z,5.60
2019-02-20T06:44:59.226Z,5.70
2019-02-20T06:47:41.740Z,5.60
2019-02-20T06:56:20.020Z,5.40
2019-02-20T06:59:10.575Z,5.40
2019-02-20T07:02:02.582Z,5.30
2019-02-20T07:05:01.488Z,5.20
2019-02-20T07:07:45.879Z,5.10
2019-02-20T07:10:51.743Z,5.10
2019-02-20T07:14:02.887Z,5.00
2019-02-20T07:17:07.549Z,4.90
2019-02-20T07:21:10.507Z,5.00
2019-02-20T07:22:44.280Z,5.00
2019-02-20T07:25:56.190Z,5.00
2019-02-20T07:28:50.924Z,5.00
2019-02-20T07:31:25.572Z,5.00
2019-02-20T07:33:55.732Z,5.10
2019-02-20T07:36:29.563Z,5.10
2019-02-20T07:38:59.844Z,5.10
2019-02-20T07:41:46.202Z,5.00
2019-02-20T07:44:35.468Z,5.00
2019-02-20T07:47:36.419Z,5.10
2019-02-20T07:50:16.158Z,5.20
2019-02-20T07:52:55.299Z,5.20
2019-02-20T07:55:21.236Z,5.30
2019-02-20T07:58:00.449Z,5.40
2019-02-20T08:00:42.374Z,5.30
2019-02-20T08:03:20.227Z,5.30
2019-02-20T08:05:59.158Z,5.30
2019-02-20T08:08:34.033Z,5.40
2019-02-20T08:11:24.391Z,5.60
2019-02-20T08:14:01.805Z,5.60
2019-02-20T08:16:41.484Z,5.80
2019-02-20T08:19:22.143Z,5.90
2019-02-20T08:21:59.900Z,6.10
2019-02-20T08:24:29.675Z,6.30
2019-02-20T08:27:18.597Z,6.30
2019-02-20T08:29:57.761Z,6.50
2019-02-20T08:32:37.475Z,6.60
2019-02-20T08:35:25.722Z,6.60
2019-02-20T08:37:59.289Z,6.80
2019-02-20T08:40:39.761Z,6.90
2019-02-20T08:43:22.885Z,6.90
2019-02-20T08:46:11.762Z,7.00
2019-02-20T08:48:59.213Z,7.10
2019-02-20T08:54:31.816Z,7.30
2019-02-20T08:57:23.589Z,7.60
2019-02-20T08:59:57.600Z,7.60
2019-02-20T09:02:52.432Z,7.60
2019-02-20T09:05:40.331Z,7.60
2019-02-20T09:08:21.375Z,7.90
2019-02-20T09:11:00.281Z,8.20
2019-02-20T09:13:47.704Z,8.60
2019-02-20T09:16:20.031Z,8.50
2019-02-20T09:19:01.775Z,8.50
2019-02-20T09:21:39.440Z,8.30
2019-02-20T09:24:19.887Z,8.30
2019-02-20T09:27:01.921Z,8.30
2019-02-20T09:29:50.280Z,8.40
2019-02-20T09:32:30.362Z,8.30
2019-02-20T09:35:13.961Z,8.30
2019-02-20T09:37:55.380Z,8.20
2019-02-20T09:40:30.706Z,8.50
2019-02-20T09:43:19.530Z,8.40
2019-02-20T09:45:57.730Z,8.30
2019-02-20T09:48:31.801Z,8.40
2019-02-20T09:51:18.491Z,8.50
2019-02-20T09:53:45.701Z,8.50
2019-02-20T09:56:20.165Z,8.70
2019-02-20T09:58:50.777Z,9.30
2019-02-20T10:01:34.964Z,9.30
2019-02-20T10:04:09.790Z,9.30
2019-02-20T10:06:49.630Z,9.30
2019-02-20T10:12:00.330Z,9.30
2019-02-20T10:14:52.543Z,9.00
2019-02-20T10:17:31.714Z,9.00
2019-02-20T10:20:18.204Z,8.90
2019-02-20T10:25:23.724Z,9.10
2019-02-20T10:27:55.187Z,9.20
2019-02-20T10:30:38.078Z,9.10
2019-02-20T10:33:02.805Z,9.10
2019-02-20T10:35:35.655Z,9.10
2019-02-20T10:41:01.458Z,9.30
2019-02-20T10:43:50.334Z,9.30
2019-02-20T10:46:23.491Z,9.30
2019-02-20T10:49:06.635Z,9.70
2019-02-20T10:51:51.981Z,9.50
2019-02-20T10:54:21.741Z,9.40
2019-02-20T10:56:55.222Z,9.50
2019-02-20T10:59:28.820Z,9.70
2019-02-20T11:01:58.645Z,9.80
2019-02-20T11:04:41.185Z,9.70
2019-02-20T11:07:30.576Z,9.80
2019-02-20T11:10:19.540Z,9.90
2019-02-20T11:13:10.015Z,10.10
2019-02-20T11:15:55.547Z,10.20
2019-02-20T11:18:33.620Z,10.30
2019-02-20T11:23:01.713Z,10.30
2019-02-20T11:23:44.223Z,10.00
2019-02-20T11:26:19.043Z,9.90
2019-02-20T11:28:49.635Z,10.00
2019-02-20T11:31:30.833Z,10.20
2019-02-20T11:34:05.086Z,10.30
2019-02-20T11:36:35.489Z,10.30
2019-02-20T11:39:06.071Z,10.40
2019-02-20T11:41:35.888Z,10.60
2019-02-20T11:44:20.811Z,10.70
2019-02-20T11:47:11.294Z,10.70
2019-02-20T11:50:08.695Z,10.60
2019-02-20T11:53:02.402Z,10.70
2019-02-20T11:55:24.652Z,10.60
2019-02-20T11:58:00.637Z,10.60
2019-02-20T12:00:30.605Z,10.60
2019-02-20T12:03:18.991Z,10.60
2019-02-20T12:05:50.452Z,10.60
2019-02-20T12:08:30.327Z,10.70
2019-02-20T12:11:03.007Z,10.80
2019-02-20T12:13:33.198Z,10.90
2019-02-20T12:16:13.711Z,11.20
2019-02-20T12:18:49.806Z,11.40
2019-02-20T12:21:32.462Z,11.60
2019-02-20T12:27:11.505Z,11.50
2019-02-20T12:29:51.414Z,11.70
2019-02-20T12:32:37.155Z,11.70
2019-02-20T12:35:10.755Z,12.60
2019-02-20T12:37:46.185Z,12.10
2019-02-20T12:41:14.645Z,12.60
2019-02-20T12:43:09.974Z,12.30
2019-02-20T12:45:41.209Z,12.10
2019-02-20T12:48:31.367Z,12.20
2019-02-20T12:51:14.090Z,11.90
2019-02-20T12:53:38.752Z,11.80
2019-02-20T12:56:28.276Z,12.00
2019-02-20T12:59:08.921Z,11.90
2019-02-20T13:02:01.496Z,11.80
2019-02-20T13:04:31.597Z,11.80
2019-02-20T13:07:09.225Z,11.90
2019-02-20T13:09:50.151Z,11.90
2019-02-20T13:12:43.484Z,11.60
2019-02-20T13:15:13.904Z,11.70
2019-02-20T13:17:53.252Z,11.60
2019-02-20T13:20:32.757Z,11.60
2019-02-20T13:23:31.035Z,11.30
2019-02-20T13:26:10.967Z,11.10
2019-02-20T13:28:48.584Z,11.00
2019-02-20T13:31:25.391Z,10.90
2019-02-20T13:33:56.515Z,10.90
2019-02-20T13:36:33.058Z,11.10
2019-02-20T13:39:08.768Z,11.00
2019-02-20T13:41:40.172Z,10.90
2019-02-20T13:44:10.058Z,11.00
2019-02-20T13:46:40.303Z,11.10
2019-02-20T13:49:19.632Z,11.30
2019-02-20T13:51:58.728Z,11.30
2019-02-20T13:55:44.143Z,11.30
2019-02-20T13:57:17.334Z,11.50
2019-02-20T13:59:45.496Z,11.70
2019-02-20T14:02:15.323Z,11.50
2019-02-20T14:04:54.096Z,11.40
2019-02-20T14:07:39.506Z,11.30
2019-02-20T14:10:06.557Z,11.20
2019-02-20T14:13:10.651Z,11.20
2019-02-20T14:15:07.002Z,11.10
2019-02-20T14:17:43.034Z,11.10
2019-02-20T14:20:15.488Z,11.00
2019-02-20T14:22:55.716Z,11.10
2019-02-20T14:25:30.043Z,11.20
2019-02-20T14:28:06.443Z,11.10
2019-02-20T14:30:47.368Z,11.10
2019-02-20T14:33:37.925Z,11.00
2019-02-20T14:36:29.848Z,11.00
2019-02-20T14:39:14.402Z,11.00
2019-02-20T14:42:06.746Z,11.10
2019-02-20T14:44:37.095Z,11.30
2019-02-20T14:47:05.817Z,11.40
2019-02-20T14:49:46.586Z,11.30
2019-02-20T14:52:18.533Z,11.30
2019-02-20T14:55:09.384Z,11.20
2019-02-20T14:58:05.268Z,11.30
2019-02-20T15:00:55.732Z,11.50
2019-02-20T15:03:44.433Z,11.60
2019-02-20T15:06:35.567Z,11.40
2019-02-20T15:09:01.339Z,11.30
2019-02-20T15:11:37.399Z,11.50
2019-02-20T15:14:12.041Z,11.30
2019-02-20T15:19:41.562Z,11.10
2019-02-20T15:22:13.677Z,11.20
2019-02-20T15:25:01.177Z,11.40
2019-02-20T15:27:50.364Z,11.20
2019-02-20T15:30:37.657Z,11.00
2019-02-20T15:33:29.815Z,11.10
2019-02-20T15:36:17.235Z,11.00
2019-02-20T15:39:07.517Z,11.00
2019-02-20T15:41:57.134Z,10.90
2019-02-20T15:44:46.414Z,10.90
2019-02-20T15:47:35.439Z,10.90
2019-02-20T15:50:22.752Z,10.90
2019-02-20T15:52:50.859Z,10.70
2019-02-20T15:55:28.790Z,10.70
2019-02-20T15:58:20.933Z,10.60
2019-02-20T16:01:02.684Z,10.60
2019-02-20T16:03:56.811Z,10.50
2019-02-20T16:06:24.601Z,10.50
2019-02-20T16:08:54.483Z,10.50
2019-02-20T16:11:43.307Z,10.40
2019-02-20T16:14:31.436Z,10.30
2019-02-20T16:17:22.098Z,10.20
2019-02-20T16:20:10.390Z,10.20
2019-02-20T16:23:01.467Z,10.20
2019-02-20T16:25:48.890Z,10.20
2019-02-20T16:28:35.538Z,10.10
2019-02-20T16:31:02.087Z,10.10
2019-02-20T16:33:56.398Z,10.00
2019-02-20T16:36:37.341Z,10.00
2019-02-20T16:39:18.084Z,10.00
2019-02-20T16:42:05.932Z,10.00
2019-02-20T16:44:38.555Z,9.90
2019-02-20T16:47:29.839Z,9.90
2019-02-20T16:50:01.298Z,9.90
2019-02-20T16:52:41.634Z,10.00
2019-02-20T16:55:23.494Z,9.90
2019-02-20T16:58:05.308Z,9.80
2019-02-20T17:00:47.474Z,9.70
2019-02-20T17:03:27.871Z,9.70
2019-02-20T17:06:06.117Z,9.70
2019-02-20T17:08:54.124Z,9.60
2019-02-20T17:11:36.160Z,9.50
2019-02-20T17:14:25.818Z,9.40
2019-02-20T17:17:17.023Z,9.30
2019-02-20T17:20:08.142Z,9.20
2019-02-20T17:22:45.730Z,9.00
2019-02-20T17:25:49.216Z,8.90
2019-02-20T17:28:09.517Z,9.00
2019-02-20T17:30:47.206Z,9.00
2019-02-20T17:33:23.383Z,8.90
2019-02-20T17:36:02.407Z,8.80
2019-02-20T17:38:41.611Z,8.60
2019-02-20T17:41:31.795Z,8.60
2019-02-20T17:44:10.500Z,8.60
2019-02-20T17:46:51.471Z,8.70
2019-02-20T17:49:40.763Z,8.60
2019-02-20T17:52:19.862Z,8.50
2019-02-20T17:55:01.178Z,8.20
2019-02-20T17:57:48.606Z,8.20
2019-02-20T18:00:38.120Z,8.40
2019-02-20T18:03:19.980Z,8.40
2019-02-20T18:06:10.109Z,8.30
2019-02-20T18:08:58.600Z,8.30
2019-02-20T18:12:30.434Z,8.20
2019-02-20T18:13:52.437Z,8.20
2019-02-20T18:18:30.058Z,8.20
2019-02-20T18:19:04.236Z,8.20
2019-02-20T18:21:42.765Z,8.30
2019-02-20T18:24:31.520Z,8.20
2019-02-20T18:27:20.045Z,8.00
2019-02-20T18:30:05.030Z,7.90
2019-02-20T18:32:28.528Z,7.80
2019-02-20T18:37:44.242Z,7.70
2019-02-20T18:40:16.789Z,7.60
2019-02-20T18:42:54.785Z,7.50
2019-02-20T18:45:54.453Z,7.40
2019-02-20T18:50:59.843Z,7.30
2019-02-20T18:53:53.286Z,7.10
2019-02-20T18:56:22.259Z,7.10
2019-02-20T18:58:57.570Z,6.80
2019-02-20T19:01:42.531Z,6.70
2019-02-20T19:04:34.482Z,6.70
2019-02-20T19:07:18.167Z,6.70
2019-02-20T19:09:56.292Z,6.70
2019-02-20T19:13:12.681Z,6.70
2019-02-20T19:16:19.838Z,6.60
2019-02-20T19:19:32.541Z,6.60
2019-02-20T19:22:36.399Z,6.50
2019-02-20T19:26:11.211Z,6.60
2019-02-20T19:29:21.871Z,6.70
2019-02-20T19:32:29.948Z,6.70
2019-02-20T19:35:34.284Z,6.60
2019-02-20T19:38:58.127Z,6.60
2019-02-20T19:42:13.706Z,6.50
2019-02-20T19:45:24.624Z,6.40
2019-02-20T19:48:18.143Z,6.60
2019-02-20T19:51:51.054Z,6.50
2019-02-20T19:54:44.692Z,6.60
2019-02-20T19:57:59.614Z,6.80
2019-02-20T20:01:03.587Z,6.70
2019-02-20T20:05:16.861Z,6.70
2019-02-20T20:07:09.127Z,6.70
2019-02-20T20:09:49.148Z,6.80
2019-02-20T20:12:47.742Z,6.70
2019-02-20T20:16:20.032Z,6.60
2019-02-20T20:19:21.822Z,6.60
2019-02-20T20:22:44.545Z,6.50
2019-02-20T20:25:39.308Z,6.40
2019-02-20T20:29:29.809Z,6.30
2019-02-20T20:32:14.756Z,6.50
2019-02-20T20:36:22.326Z,6.40
2019-02-20T20:41:28.371Z,6.10
2019-02-20T20:44:45.465Z,6.00
2019-02-20T20:47:44.109Z,6.00
2019-02-20T20:51:04.340Z,5.90
2019-02-20T20:55:00.524Z,5.90
2019-02-20T21:00:16.077Z,6.10
2019-02-20T21:01:29.262Z,6.20
2019-02-20T21:05:50.581Z,6.20
2019-02-20T21:08:06.019Z,6.30
2019-02-20T21:11:01.982Z,6.30
2019-02-20T21:14:02.457Z,6.20
2019-02-20T21:17:05.567Z,6.10
2019-02-20T21:20:23.683Z,5.90
2019-02-20T21:24:52.708Z,5.90
2019-02-20T21:27:06.028Z,5.70
2019-02-20T21:30:17.293Z,5.70
2019-02-20T21:33:42.683Z,5.50
2019-02-20T21:36:42.030Z,5.50
2019-02-20T21:39:55.062Z,5.40
2019-02-20T21:43:27.199Z,5.40
2019-02-20T21:46:55.090Z,5.40
2019-02-20T21:49:50.295Z,5.20
2019-02-20T21:52:58.060Z,5.10
2019-02-20T21:55:54.317Z,5.20
2019-02-20T21:58:53.874Z,5.20
2019-02-20T22:01:54.090Z,5.10
2019-02-20T22:05:07.677Z,5.10
2019-02-20T22:08:17.659Z,5.00
2019-02-20T22:11:40.950Z,5.20
2019-02-20T22:18:28.406Z,5.40
2019-02-20T22:21:26.941Z,5.30
2019-02-20T22:24:23.239Z,5.20
2019-02-20T22:27:14.163Z,5.10
2019-02-20T22:30:44.481Z,5.10
2019-02-20T22:34:36.364Z,5.10
2019-02-20T22:37:33.598Z,5.10
2019-02-20T22:40:33.785Z,5.00
2019-02-20T22:43:22.507Z,4.90
2019-02-20T22:46:00.281Z,4.90
2019-02-20T22:49:25.383Z,4.80
2019-02-20T22:52:57.242Z,4.80
2019-02-20T22:56:28.714Z,5.00
2019-02-20T22:59:23.687Z,5.00
2019-02-20T23:02:37.284Z,4.90
2019-02-20T23:06:25.098Z,4.90
2019-02-20T23:08:56.063Z,4.90
2019-02-20T23:12:24.956Z,4.90
2019-02-20T23:15:00.950Z,4.90
2019-02-20T23:17:40.273Z,4.90
2019-02-20T23:20:32.159Z,4.90
2019-02-20T23:23:22.916Z,4.80
2019-02-20T23:26:11.861Z,4.90
2019-02-20T23:28:49.448Z,4.90
2019-02-20T23:31:32.373Z,5.00
2019-02-20T23:34:20.623Z,4.90
2019-02-20T23:37:43.435Z,4.80
2019-02-20T23:39:43.993Z,4.80
2019-02-20T23:42:24.696Z,4.80
2019-02-20T23:45:06.454Z,4.80
2019-02-20T23:47:46.460Z,4.80
2019-02-20T23:50:33.144Z,4.70
2019-02-20T23:53:11.789Z,4.90
2019-02-20T23:55:56.898Z,4.80
2019-02-20T23:58:44.476Z,4.70
